ワシントン/ダレス の空港の天気 - METARとTAF

ワシントン・ダレス国際空港 ( KIAD / IAD ) - アメリカ バージニア州ダレス
飛行場実況気象(Metar)
観測時間10/19 13:52 EDT (10/19 17:52 UTC)
風向・風速南南西 6m/s 瞬間風速8m/s
視程10km以上
天気現象
全天の4割程度の雲 雲底高度 2740m
全天の8割程度の雲 雲底高度 7620m
気温16.7℃
湿度50%
気圧1022.7hPa
METARKIAD 191752Z 20011G16KT 10SM SCT090 BKN250 17/06 A3020 RMK AO2 PRESFR SLP227 T01670061 10167 20017 58044
過去の天気等 Google飛行場航空写真 Wunderground天気予報

過去48時間のMETAR

飛行場予報(TAF)
発表時間: 10/19 13:33 EDT (10/19 17:33 UTC)
予報対象時間: 19日14時 EDT ~ 20日20時 EDT
風向・風速南 4m/s
視程10km以上
少しの雲 雲底高度 6100m
20日0時 EDT から
風向・風速南南西 5m/s
視程10km以上
全天を覆う雲 雲底高度 3050m
20日3時 EDT から
風向・風速南南西 4m/s
視程10km以上
天気現象弱いしゅう雨
全天を覆う雲 雲底高度 1520m
20日6時 EDT から
風向・風速南南西 4m/s
視程10km以上
全天を覆う雲 雲底高度 1220m
20日10時 EDT から
風向・風速西南西 4m/s
視程10km以上
全天の8割程度の雲 雲底高度 1220m
20日13時 EDT から
風向・風速西 5m/s
視程10km以上
全天の4割程度の雲 雲底高度 1220m
KIAD 191733Z 1918/2024 19008KT P6SM FEW200
FM200400 20009KT P6SM OVC100
FM200700 21008KT P6SM -SHRA OVC050
FM201000 21008KT P6SM OVC040
FM201400 25007KT P6SM BKN040
FM201700 27009KT P6SM SCT040